sensor_id;sensor_type;location;lat;lon;timestamp;temperature;humidity
3055;DHT22;1537;52.018;8.542;2023-02-28T00:01:22;0.50;91.20
3055;DHT22;1537;52.018;8.542;2023-02-28T00:04:47;0.50;91.40
3055;DHT22;1537;52.018;8.542;2023-02-28T00:08:19;0.50;91.50
3055;DHT22;1537;52.018;8.542;2023-02-28T00:11:46;0.50;91.50
3055;DHT22;1537;52.018;8.542;2023-02-28T00:15:10;0.60;91.50
3055;DHT22;1537;52.018;8.542;2023-02-28T00:18:35;0.60;91.60
3055;DHT22;1537;52.018;8.542;2023-02-28T00:22:00;0.70;91.70
3055;DHT22;1537;52.018;8.542;2023-02-28T00:25:25;0.60;91.70
3055;DHT22;1537;52.018;8.542;2023-02-28T00:28:51;0.70;91.70
3055;DHT22;1537;52.018;8.542;2023-02-28T00:32:14;0.70;91.60
3055;DHT22;1537;52.018;8.542;2023-02-28T00:35:39;0.70;91.60
3055;DHT22;1537;52.018;8.542;2023-02-28T00:39:05;0.60;91.50
3055;DHT22;1537;52.018;8.542;2023-02-28T00:42:30;0.60;91.60
3055;DHT22;1537;52.018;8.542;2023-02-28T00:45:54;0.50;91.70
3055;DHT22;1537;52.018;8.542;2023-02-28T00:49:19;0.50;91.80
3055;DHT22;1537;52.018;8.542;2023-02-28T00:52:43;0.50;91.90
3055;DHT22;1537;52.018;8.542;2023-02-28T00:56:07;0.40;91.90
3055;DHT22;1537;52.018;8.542;2023-02-28T00:59:32;0.40;92.00
3055;DHT22;1537;52.018;8.542;2023-02-28T01:02:56;0.20;92.30
3055;DHT22;1537;52.018;8.542;2023-02-28T01:06:20;0.20;92.50
3055;DHT22;1537;52.018;8.542;2023-02-28T01:09:44;0.10;92.70
3055;DHT22;1537;52.018;8.542;2023-02-28T01:13:08;0.10;93.10
3055;DHT22;1537;52.018;8.542;2023-02-28T01:16:34;0.10;92.80
3055;DHT22;1537;52.018;8.542;2023-02-28T01:19:58;0.10;92.80
3055;DHT22;1537;52.018;8.542;2023-02-28T01:23:22;0.10;92.90
3055;DHT22;1537;52.018;8.542;2023-02-28T01:26:49;0.10;92.90
3055;DHT22;1537;52.018;8.542;2023-02-28T01:30:14;0.10;92.80
3055;DHT22;1537;52.018;8.542;2023-02-28T01:33:39;0.00;92.90
3055;DHT22;1537;52.018;8.542;2023-02-28T01:37:04;0.00;92.90
3055;DHT22;1537;52.018;8.542;2023-02-28T01:40:28;-0.10;93.00
3055;DHT22;1537;52.018;8.542;2023-02-28T01:43:55;-0.10;93.40
3055;DHT22;1537;52.018;8.542;2023-02-28T01:47:19;-0.20;93.30
3055;DHT22;1537;52.018;8.542;2023-02-28T01:50:46;-0.20;93.30
3055;DHT22;1537;52.018;8.542;2023-02-28T01:54:14;-0.30;93.50
3055;DHT22;1537;52.018;8.542;2023-02-28T01:57:45;-0.20;93.50
3055;DHT22;1537;52.018;8.542;2023-02-28T02:01:11;-0.20;93.50
3055;DHT22;1537;52.018;8.542;2023-02-28T02:04:50;-0.30;93.50
3055;DHT22;1537;52.018;8.542;2023-02-28T02:08:17;-0.30;93.60
3055;DHT22;1537;52.018;8.542;2023-02-28T02:11:43;-0.30;93.70
3055;DHT22;1537;52.018;8.542;2023-02-28T02:15:13;-0.40;93.80
3055;DHT22;1537;52.018;8.542;2023-02-28T02:18:42;-0.40;93.80
3055;DHT22;1537;52.018;8.542;2023-02-28T02:22:21;-0.40;93.90
3055;DHT22;1537;52.018;8.542;2023-02-28T02:25:54;-0.40;94.00
3055;DHT22;1537;52.018;8.542;2023-02-28T02:37:25;-0.40;93.90
3055;DHT22;1537;52.018;8.542;2023-02-28T02:40:58;-0.40;94.00
3055;DHT22;1537;52.018;8.542;2023-02-28T02:44:29;-0.40;93.90
3055;DHT22;1537;52.018;8.542;2023-02-28T02:47:56;-0.50;93.90
3055;DHT22;1537;52.018;8.542;2023-02-28T02:51:22;-0.50;94.00
3055;DHT22;1537;52.018;8.542;2023-02-28T02:54:49;-0.50;94.10
3055;DHT22;1537;52.018;8.542;2023-02-28T02:58:20;-0.50;94.10
3055;DHT22;1537;52.018;8.542;2023-02-28T03:01:50;-0.60;94.10
3055;DHT22;1537;52.018;8.542;2023-02-28T03:05:19;-0.60;94.10
3055;DHT22;1537;52.018;8.542;2023-02-28T03:08:45;-0.70;94.10
3055;DHT22;1537;52.018;8.542;2023-02-28T03:12:17;-0.70;94.20
3055;DHT22;1537;52.018;8.542;2023-02-28T03:15:53;-0.70;94.20
3055;DHT22;1537;52.018;8.542;2023-02-28T03:19:47;-0.70;94.20
3055;DHT22;1537;52.018;8.542;2023-02-28T03:23:21;-0.80;94.20
3055;DHT22;1537;52.018;8.542;2023-02-28T03:26:52;-0.80;94.30
3055;DHT22;1537;52.018;8.542;2023-02-28T03:30:24;-0.80;94.30
3055;DHT22;1537;52.018;8.542;2023-02-28T03:33:58;-0.80;94.30
3055;DHT22;1537;52.018;8.542;2023-02-28T03:37:25;-0.90;94.40
3055;DHT22;1537;52.018;8.542;2023-02-28T03:40:58;-0.90;94.50
3055;DHT22;1537;52.018;8.542;2023-02-28T03:44:30;-0.90;94.50
3055;DHT22;1537;52.018;8.542;2023-02-28T03:48:01;-1.00;94.60
3055;DHT22;1537;52.018;8.542;2023-02-28T03:51:27;-1.00;94.70
3055;DHT22;1537;52.018;8.542;2023-02-28T03:54:54;-1.00;94.70
3055;DHT22;1537;52.018;8.542;2023-02-28T03:58:32;-1.10;94.70
3055;DHT22;1537;52.018;8.542;2023-02-28T04:01:59;-1.10;94.80
3055;DHT22;1537;52.018;8.542;2023-02-28T04:05:27;-1.10;94.80
3055;DHT22;1537;52.018;8.542;2023-02-28T04:08:51;-1.20;94.90
3055;DHT22;1537;52.018;8.542;2023-02-28T04:12:18;-1.20;94.90
3055;DHT22;1537;52.018;8.542;2023-02-28T04:15:42;-1.20;94.90
3055;DHT22;1537;52.018;8.542;2023-02-28T04:19:11;-1.30;95.30
3055;DHT22;1537;52.018;8.542;2023-02-28T04:22:39;-1.30;95.00
3055;DHT22;1537;52.018;8.542;2023-02-28T04:26:03;-1.30;95.00
3055;DHT22;1537;52.018;8.542;2023-02-28T04:29:30;-1.30;95.10
3055;DHT22;1537;52.018;8.542;2023-02-28T04:32:55;-1.30;95.20
3055;DHT22;1537;52.018;8.542;2023-02-28T04:36:19;-1.30;95.20
3055;DHT22;1537;52.018;8.542;2023-02-28T04:39:46;-1.30;95.20
3055;DHT22;1537;52.018;8.542;2023-02-28T04:43:11;-1.40;95.50
3055;DHT22;1537;52.018;8.542;2023-02-28T04:46:35;-1.40;95.20
3055;DHT22;1537;52.018;8.542;2023-02-28T04:49:58;-1.30;95.30
3055;DHT22;1537;52.018;8.542;2023-02-28T04:53:23;-1.40;95.20
3055;DHT22;1537;52.018;8.542;2023-02-28T04:56:48;-1.40;95.30
3055;DHT22;1537;52.018;8.542;2023-02-28T05:00:13;-1.40;95.30
3055;DHT22;1537;52.018;8.542;2023-02-28T05:03:40;-1.40;95.30
3055;DHT22;1537;52.018;8.542;2023-02-28T05:07:04;-1.40;95.20
3055;DHT22;1537;52.018;8.542;2023-02-28T05:10:28;-1.40;95.30
3055;DHT22;1537;52.018;8.542;2023-02-28T05:13:55;-1.50;95.20
3055;DHT22;1537;52.018;8.542;2023-02-28T05:17:20;-1.50;95.20
3055;DHT22;1537;52.018;8.542;2023-02-28T05:20:46;-1.50;95.20
3055;DHT22;1537;52.018;8.542;2023-02-28T05:24:11;-1.60;95.20
3055;DHT22;1537;52.018;8.542;2023-02-28T05:27:38;-1.60;95.30
3055;DHT22;1537;52.018;8.542;2023-02-28T05:31:04;-1.60;95.30
3055;DHT22;1537;52.018;8.542;2023-02-28T05:34:28;-1.70;95.40
3055;DHT22;1537;52.018;8.542;2023-02-28T05:37:52;-1.70;95.40
3055;DHT22;1537;52.018;8.542;2023-02-28T05:41:17;-1.70;95.80
3055;DHT22;1537;52.018;8.542;2023-02-28T05:44:43;-1.70;95.40
3055;DHT22;1537;52.018;8.542;2023-02-28T05:48:09;-1.70;95.40
3055;DHT22;1537;52.018;8.542;2023-02-28T05:51:33;-1.70;95.40
3055;DHT22;1537;52.018;8.542;2023-02-28T05:54:59;-1.70;95.40
3055;DHT22;1537;52.018;8.542;2023-02-28T05:58:23;-1.70;95.40
3055;DHT22;1537;52.018;8.542;2023-02-28T06:01:51;-1.70;95.50
3055;DHT22;1537;52.018;8.542;2023-02-28T06:05:18;-1.70;95.50
3055;DHT22;1537;52.018;8.542;2023-02-28T06:08:42;-1.70;95.60
3055;DHT22;1537;52.018;8.542;2023-02-28T06:12:07;-1.70;95.60
3055;DHT22;1537;52.018;8.542;2023-02-28T06:15:35;-1.70;95.70
3055;DHT22;1537;52.018;8.542;2023-02-28T06:19:01;-1.70;95.70
3055;DHT22;1537;52.018;8.542;2023-02-28T06:22:27;-1.70;95.70
3055;DHT22;1537;52.018;8.542;2023-02-28T06:25:51;-1.60;95.70
3055;DHT22;1537;52.018;8.542;2023-02-28T06:29:16;-1.60;95.80
3055;DHT22;1537;52.018;8.542;2023-02-28T06:32:41;-1.60;95.80
3055;DHT22;1537;52.018;8.542;2023-02-28T06:36:06;-1.50;95.70
3055;DHT22;1537;52.018;8.542;2023-02-28T06:39:32;-1.50;95.70
3055;DHT22;1537;52.018;8.542;2023-02-28T06:42:56;-1.50;95.70
3055;DHT22;1537;52.018;8.542;2023-02-28T06:46:20;-1.50;95.80
3055;DHT22;1537;52.018;8.542;2023-02-28T06:49:44;-1.40;95.90
3055;DHT22;1537;52.018;8.542;2023-02-28T06:53:08;-1.40;95.80
3055;DHT22;1537;52.018;8.542;2023-02-28T06:56:33;-1.30;95.90
3055;DHT22;1537;52.018;8.542;2023-02-28T06:59:58;-1.30;95.80
3055;DHT22;1537;52.018;8.542;2023-02-28T07:03:22;-1.20;95.70
3055;DHT22;1537;52.018;8.542;2023-02-28T07:06:48;-1.20;95.60
3055;DHT22;1537;52.018;8.542;2023-02-28T07:10:12;-1.10;95.70
3055;DHT22;1537;52.018;8.542;2023-02-28T07:13:43;-1.10;95.60
3055;DHT22;1537;52.018;8.542;2023-02-28T07:17:10;-1.00;95.50
3055;DHT22;1537;52.018;8.542;2023-02-28T07:20:34;-1.00;95.50
3055;DHT22;1537;52.018;8.542;2023-02-28T07:24:00;-0.90;95.40
3055;DHT22;1537;52.018;8.542;2023-02-28T07:27:23;-0.80;95.30
3055;DHT22;1537;52.018;8.542;2023-02-28T07:30:49;-0.70;95.50
3055;DHT22;1537;52.018;8.542;2023-02-28T07:34:13;0.50;98.40
3055;DHT22;1537;52.018;8.542;2023-02-28T07:37:36;2.70;99.60
3055;DHT22;1537;52.018;8.542;2023-02-28T07:41:00;4.80;93.20
3055;DHT22;1537;52.018;8.542;2023-02-28T07:44:26;6.00;80.90
3055;DHT22;1537;52.018;8.542;2023-02-28T07:47:51;6.70;66.90
3055;DHT22;1537;52.018;8.542;2023-02-28T07:51:15;7.40;65.80
3055;DHT22;1537;52.018;8.542;2023-02-28T07:54:38;8.10;59.00
3055;DHT22;1537;52.018;8.542;2023-02-28T07:58:02;8.60;57.00
3055;DHT22;1537;52.018;8.542;2023-02-28T08:01:26;9.30;56.10
3055;DHT22;1537;52.018;8.542;2023-02-28T08:04:53;9.80;52.10
3055;DHT22;1537;52.018;8.542;2023-02-28T08:08:17;10.80;50.40
3055;DHT22;1537;52.018;8.542;2023-02-28T08:11:41;11.40;48.50
3055;DHT22;1537;52.018;8.542;2023-02-28T08:15:05;11.90;45.60
3055;DHT22;1537;52.018;8.542;2023-02-28T08:18:29;12.10;42.00
3055;DHT22;1537;52.018;8.542;2023-02-28T08:21:54;11.20;43.50
3055;DHT22;1537;52.018;8.542;2023-02-28T08:25:18;11.50;43.70
3055;DHT22;1537;52.018;8.542;2023-02-28T08:28:41;11.60;41.40
3055;DHT22;1537;52.018;8.542;2023-02-28T08:32:07;11.90;42.30
3055;DHT22;1537;52.018;8.542;2023-02-28T08:35:52;12.50;40.80
3055;DHT22;1537;52.018;8.542;2023-02-28T08:39:18;13.10;39.20
3055;DHT22;1537;52.018;8.542;2023-02-28T08:42:42;14.00;36.30
3055;DHT22;1537;52.018;8.542;2023-02-28T08:46:06;14.00;34.30
3055;DHT22;1537;52.018;8.542;2023-02-28T08:49:30;14.20;34.60
3055;DHT22;1537;52.018;8.542;2023-02-28T08:52:54;14.30;35.10
3055;DHT22;1537;52.018;8.542;2023-02-28T08:56:19;14.90;34.60
3055;DHT22;1537;52.018;8.542;2023-02-28T08:59:43;15.70;32.00
3055;DHT22;1537;52.018;8.542;2023-02-28T09:03:06;15.70;30.60
3055;DHT22;1537;52.018;8.542;2023-02-28T09:06:32;16.00;29.70
3055;DHT22;1537;52.018;8.542;2023-02-28T09:09:55;15.80;29.60
3055;DHT22;1537;52.018;8.542;2023-02-28T09:13:21;15.50;30.00
3055;DHT22;1537;52.018;8.542;2023-02-28T09:16:45;16.20;29.50
3055;DHT22;1537;52.018;8.542;2023-02-28T09:20:10;16.70;28.50
3055;DHT22;1537;52.018;8.542;2023-02-28T09:23:34;15.80;28.50
3055;DHT22;1537;52.018;8.542;2023-02-28T09:27:00;14.40;29.50
3055;DHT22;1537;52.018;8.542;2023-02-28T09:30:28;13.30;31.20
3055;DHT22;1537;52.018;8.542;2023-02-28T09:33:54;14.50;30.30
3055;DHT22;1537;52.018;8.542;2023-02-28T09:37:18;14.50;30.00
3055;DHT22;1537;52.018;8.542;2023-02-28T09:40:47;14.20;29.80
3055;DHT22;1537;52.018;8.542;2023-02-28T09:44:15;12.20;32.70
3055;DHT22;1537;52.018;8.542;2023-02-28T09:47:45;10.20;34.80
3055;DHT22;1537;52.018;8.542;2023-02-28T09:51:23;7.90;40.20
3055;DHT22;1537;52.018;8.542;2023-02-28T09:54:50;7.60;43.30
3055;DHT22;1537;52.018;8.542;2023-02-28T09:58:20;9.10;41.30
3055;DHT22;1537;52.018;8.542;2023-02-28T10:01:48;11.00;37.70
3055;DHT22;1537;52.018;8.542;2023-02-28T10:05:20;10.10;36.70
3055;DHT22;1537;52.018;8.542;2023-02-28T10:08:52;10.80;35.30
3055;DHT22;1537;52.018;8.542;2023-02-28T10:12:20;11.10;34.30
3055;DHT22;1537;52.018;8.542;2023-02-28T10:15:45;11.30;34.00
3055;DHT22;1537;52.018;8.542;2023-02-28T10:19:14;10.80;34.10
3055;DHT22;1537;52.018;8.542;2023-02-28T10:22:44;10.00;35.80
3055;DHT22;1537;52.018;8.542;2023-02-28T10:26:16;8.90;39.10
3055;DHT22;1537;52.018;8.542;2023-02-28T10:29:42;10.00;38.60
3055;DHT22;1537;52.018;8.542;2023-02-28T10:33:08;10.00;37.10
3055;DHT22;1537;52.018;8.542;2023-02-28T10:36:37;9.90;38.40
3055;DHT22;1537;52.018;8.542;2023-02-28T10:40:02;11.50;36.20
3055;DHT22;1537;52.018;8.542;2023-02-28T10:43:28;11.40;35.30
3055;DHT22;1537;52.018;8.542;2023-02-28T10:46:51;9.90;37.60
3055;DHT22;1537;52.018;8.542;2023-02-28T10:50:37;9.40;39.00
3055;DHT22;1537;52.018;8.542;2023-02-28T10:54:03;8.30;41.00
3055;DHT22;1537;52.018;8.542;2023-02-28T10:57:30;8.00;42.00
3055;DHT22;1537;52.018;8.542;2023-02-28T11:00:55;7.10;42.70
3055;DHT22;1537;52.018;8.542;2023-02-28T11:04:31;7.40;42.70
3055;DHT22;1537;52.018;8.542;2023-02-28T11:07:57;6.60;44.00
3055;DHT22;1537;52.018;8.542;2023-02-28T11:11:25;5.80;46.30
3055;DHT22;1537;52.018;8.542;2023-02-28T11:14:56;5.60;47.40
3055;DHT22;1537;52.018;8.542;2023-02-28T11:18:24;5.10;46.90
3055;DHT22;1537;52.018;8.542;2023-02-28T11:21:53;5.00;47.80
3055;DHT22;1537;52.018;8.542;2023-02-28T11:25:21;5.00;48.10
3055;DHT22;1537;52.018;8.542;2023-02-28T11:28:45;5.10;47.90
3055;DHT22;1537;52.018;8.542;2023-02-28T11:32:18;5.20;47.80
3055;DHT22;1537;52.018;8.542;2023-02-28T11:35:43;5.30;47.70
3055;DHT22;1537;52.018;8.542;2023-02-28T11:39:10;5.40;48.80
3055;DHT22;1537;52.018;8.542;2023-02-28T11:42:49;5.10;47.60
3055;DHT22;1537;52.018;8.542;2023-02-28T11:46:26;5.10;48.80
3055;DHT22;1537;52.018;8.542;2023-02-28T11:50:11;4.80;49.90
3055;DHT22;1537;52.018;8.542;2023-02-28T11:53:55;4.80;51.00
3055;DHT22;1537;52.018;8.542;2023-02-28T11:57:35;4.80;50.70
3055;DHT22;1537;52.018;8.542;2023-02-28T12:01:09;4.90;50.50
3055;DHT22;1537;52.018;8.542;2023-02-28T12:04:45;4.80;50.30
3055;DHT22;1537;52.018;8.542;2023-02-28T12:08:26;4.90;50.50
3055;DHT22;1537;52.018;8.542;2023-02-28T12:11:56;5.10;50.40
3055;DHT22;1537;52.018;8.542;2023-02-28T12:15:42;5.10;50.70
3055;DHT22;1537;52.018;8.542;2023-02-28T12:19:17;5.10;50.60
3055;DHT22;1537;52.018;8.542;2023-02-28T12:22:49;4.90;51.30
3055;DHT22;1537;52.018;8.542;2023-02-28T12:26:19;5.10;51.20
3055;DHT22;1537;52.018;8.542;2023-02-28T12:29:50;5.00;50.50
3055;DHT22;1537;52.018;8.542;2023-02-28T12:33:18;5.00;50.50
3055;DHT22;1537;52.018;8.542;2023-02-28T12:36:45;4.90;50.60
3055;DHT22;1537;52.018;8.542;2023-02-28T12:40:13;4.90;50.40
3055;DHT22;1537;52.018;8.542;2023-02-28T12:43:43;4.90;50.30
3055;DHT22;1537;52.018;8.542;2023-02-28T12:47:12;5.10;51.20
3055;DHT22;1537;52.018;8.542;2023-02-28T12:50:37;5.20;51.50
3055;DHT22;1537;52.018;8.542;2023-02-28T12:54:07;5.20;51.70
3055;DHT22;1537;52.018;8.542;2023-02-28T12:57:38;5.10;51.80
3055;DHT22;1537;52.018;8.542;2023-02-28T13:01:20;5.00;50.50
3055;DHT22;1537;52.018;8.542;2023-02-28T13:09:10;5.10;51.30
3055;DHT22;1537;52.018;8.542;2023-02-28T13:12:47;5.20;51.60
3055;DHT22;1537;52.018;8.542;2023-02-28T13:16:12;5.20;51.50
3055;DHT22;1537;52.018;8.542;2023-02-28T13:19:38;5.10;51.70
3055;DHT22;1537;52.018;8.542;2023-02-28T13:23:03;5.20;51.00
3055;DHT22;1537;52.018;8.542;2023-02-28T13:31:01;5.40;51.30
3055;DHT22;1537;52.018;8.542;2023-02-28T13:34:26;5.60;50.90
3055;DHT22;1537;52.018;8.542;2023-02-28T13:37:50;5.70;50.50
3055;DHT22;1537;52.018;8.542;2023-02-28T13:41:45;5.70;50.60
3055;DHT22;1537;52.018;8.542;2023-02-28T13:45:24;5.80;50.50
3055;DHT22;1537;52.018;8.542;2023-02-28T13:48:48;5.70;50.80
3055;DHT22;1537;52.018;8.542;2023-02-28T13:52:17;5.60;51.40
3055;DHT22;1537;52.018;8.542;2023-02-28T13:55:44;5.40;52.00
3055;DHT22;1537;52.018;8.542;2023-02-28T13:59:20;5.20;51.30
3055;DHT22;1537;52.018;8.542;2023-02-28T14:03:05;5.20;51.70
3055;DHT22;1537;52.018;8.542;2023-02-28T14:06:32;5.30;51.70
3055;DHT22;1537;52.018;8.542;2023-02-28T14:10:00;5.30;51.70
3055;DHT22;1537;52.018;8.542;2023-02-28T14:13:39;5.20;51.50
3055;DHT22;1537;52.018;8.542;2023-02-28T14:17:12;5.40;51.60
3055;DHT22;1537;52.018;8.542;2023-02-28T14:20:40;5.30;51.70
3055;DHT22;1537;52.018;8.542;2023-02-28T14:24:25;5.40;52.50
3055;DHT22;1537;52.018;8.542;2023-02-28T14:27:58;5.10;52.20
3055;DHT22;1537;52.018;8.542;2023-02-28T14:31:31;5.00;52.90
3055;DHT22;1537;52.018;8.542;2023-02-28T14:34:59;5.10;52.70
3055;DHT22;1537;52.018;8.542;2023-02-28T14:38:29;5.10;52.60
3055;DHT22;1537;52.018;8.542;2023-02-28T14:41:54;5.00;52.70
3055;DHT22;1537;52.018;8.542;2023-02-28T14:45:20;5.10;52.30
3055;DHT22;1537;52.018;8.542;2023-02-28T14:48:45;5.10;51.80
3055;DHT22;1537;52.018;8.542;2023-02-28T14:52:15;5.10;53.00
3055;DHT22;1537;52.018;8.542;2023-02-28T14:55:44;5.00;53.10
3055;DHT22;1537;52.018;8.542;2023-02-28T14:59:24;5.00;54.00
3055;DHT22;1537;52.018;8.542;2023-02-28T15:02:50;5.20;53.90
3055;DHT22;1537;52.018;8.542;2023-02-28T15:06:16;5.10;53.70
3055;DHT22;1537;52.018;8.542;2023-02-28T15:09:41;5.10;53.80
3055;DHT22;1537;52.018;8.542;2023-02-28T15:13:06;5.20;54.50
3055;DHT22;1537;52.018;8.542;2023-02-28T15:16:33;5.20;55.30
3055;DHT22;1537;52.018;8.542;2023-02-28T15:19:59;5.10;55.80
3055;DHT22;1537;52.018;8.542;2023-02-28T15:23:24;5.10;56.50
3055;DHT22;1537;52.018;8.542;2023-02-28T15:26:52;5.10;56.70
3055;DHT22;1537;52.018;8.542;2023-02-28T15:30:18;5.10;56.50
3055;DHT22;1537;52.018;8.542;2023-02-28T15:33:52;5.00;56.80
3055;DHT22;1537;52.018;8.542;2023-02-28T15:37:39;5.00;57.20
3055;DHT22;1537;52.018;8.542;2023-02-28T15:41:03;4.90;57.80
3055;DHT22;1537;52.018;8.542;2023-02-28T15:44:33;4.90;57.90
3055;DHT22;1537;52.018;8.542;2023-02-28T15:47:59;4.90;58.00
3055;DHT22;1537;52.018;8.542;2023-02-28T15:51:37;4.80;58.10
3055;DHT22;1537;52.018;8.542;2023-02-28T15:55:11;4.70;58.50
3055;DHT22;1537;52.018;8.542;2023-02-28T15:58:35;4.70;58.80
3055;DHT22;1537;52.018;8.542;2023-02-28T16:02:14;4.70;58.30
3055;DHT22;1537;52.018;8.542;2023-02-28T16:05:40;4.70;58.30
3055;DHT22;1537;52.018;8.542;2023-02-28T16:09:06;4.60;57.50
3055;DHT22;1537;52.018;8.542;2023-02-28T16:12:33;4.50;57.70
3055;DHT22;1537;52.018;8.542;2023-02-28T16:15:57;4.50;57.80
3055;DHT22;1537;52.018;8.542;2023-02-28T16:19:23;4.50;58.30
3055;DHT22;1537;52.018;8.542;2023-02-28T16:22:47;4.40;58.80
3055;DHT22;1537;52.018;8.542;2023-02-28T16:26:18;4.50;58.60
3055;DHT22;1537;52.018;8.542;2023-02-28T16:29:44;4.50;58.20
3055;DHT22;1537;52.018;8.542;2023-02-28T16:33:08;4.50;57.50
3055;DHT22;1537;52.018;8.542;2023-02-28T16:36:32;4.40;56.90
3055;DHT22;1537;52.018;8.542;2023-02-28T16:39:56;4.30;56.90
3055;DHT22;1537;52.018;8.542;2023-02-28T16:43:23;4.30;57.00
3055;DHT22;1537;52.018;8.542;2023-02-28T16:46:49;4.30;58.40
3055;DHT22;1537;52.018;8.542;2023-02-28T16:50:14;4.20;59.20
3055;DHT22;1537;52.018;8.542;2023-02-28T16:53:39;4.10;60.40
3055;DHT22;1537;52.018;8.542;2023-02-28T16:57:03;4.00;61.00
3055;DHT22;1537;52.018;8.542;2023-02-28T17:00:29;4.00;61.80
3055;DHT22;1537;52.018;8.542;2023-02-28T17:03:56;4.00;62.10
3055;DHT22;1537;52.018;8.542;2023-02-28T17:07:19;3.90;62.40
3055;DHT22;1537;52.018;8.542;2023-02-28T17:10:43;3.90;62.80
3055;DHT22;1537;52.018;8.542;2023-02-28T17:14:07;3.80;63.40
3055;DHT22;1537;52.018;8.542;2023-02-28T17:17:31;3.80;64.30
3055;DHT22;1537;52.018;8.542;2023-02-28T17:20:56;3.70;64.80
3055;DHT22;1537;52.018;8.542;2023-02-28T17:24:20;3.60;65.50
3055;DHT22;1537;52.018;8.542;2023-02-28T17:27:52;3.60;65.80
3055;DHT22;1537;52.018;8.542;2023-02-28T17:31:17;3.50;66.20
3055;DHT22;1537;52.018;8.542;2023-02-28T17:34:40;3.50;66.60
3055;DHT22;1537;52.018;8.542;2023-02-28T17:38:07;3.40;66.70
3055;DHT22;1537;52.018;8.542;2023-02-28T17:41:37;3.40;67.20
3055;DHT22;1537;52.018;8.542;2023-02-28T17:45:00;3.30;67.50
3055;DHT22;1537;52.018;8.542;2023-02-28T17:48:24;3.30;68.00
3055;DHT22;1537;52.018;8.542;2023-02-28T17:51:48;3.20;68.30
3055;DHT22;1537;52.018;8.542;2023-02-28T17:55:14;3.10;68.60
3055;DHT22;1537;52.018;8.542;2023-02-28T17:58:37;3.10;69.00
3055;DHT22;1537;52.018;8.542;2023-02-28T18:02:01;3.00;69.30
3055;DHT22;1537;52.018;8.542;2023-02-28T18:05:26;3.00;69.60
3055;DHT22;1537;52.018;8.542;2023-02-28T18:08:50;2.90;69.90
3055;DHT22;1537;52.018;8.542;2023-02-28T18:12:15;2.90;70.20
3055;DHT22;1537;52.018;8.542;2023-02-28T18:15:39;2.80;70.60
3055;DHT22;1537;52.018;8.542;2023-02-28T18:19:03;2.80;71.00
3055;DHT22;1537;52.018;8.542;2023-02-28T18:22:26;2.80;71.50
3055;DHT22;1537;52.018;8.542;2023-02-28T18:25:50;2.70;71.90
3055;DHT22;1537;52.018;8.542;2023-02-28T18:29:21;2.70;72.40
3055;DHT22;1537;52.018;8.542;2023-02-28T18:32:46;2.60;72.70
3055;DHT22;1537;52.018;8.542;2023-02-28T18:36:10;2.60;73.10
3055;DHT22;1537;52.018;8.542;2023-02-28T18:39:33;2.50;73.10
3055;DHT22;1537;52.018;8.542;2023-02-28T18:42:57;2.50;73.00
3055;DHT22;1537;52.018;8.542;2023-02-28T18:46:22;2.50;73.10
3055;DHT22;1537;52.018;8.542;2023-02-28T18:49:46;2.50;73.10
3055;DHT22;1537;52.018;8.542;2023-02-28T18:53:10;2.50;73.30
3055;DHT22;1537;52.018;8.542;2023-02-28T18:56:33;2.50;73.30
3055;DHT22;1537;52.018;8.542;2023-02-28T18:59:57;2.40;73.30
3055;DHT22;1537;52.018;8.542;2023-02-28T19:03:22;2.40;73.60
3055;DHT22;1537;52.018;8.542;2023-02-28T19:06:45;2.40;73.90
3055;DHT22;1537;52.018;8.542;2023-02-28T19:10:10;2.30;74.10
3055;DHT22;1537;52.018;8.542;2023-02-28T19:13:35;2.30;74.40
3055;DHT22;1537;52.018;8.542;2023-02-28T19:16:58;2.20;74.70
3055;DHT22;1537;52.018;8.542;2023-02-28T19:20:24;2.20;74.80
3055;DHT22;1537;52.018;8.542;2023-02-28T19:23:47;2.10;75.10
3055;DHT22;1537;52.018;8.542;2023-02-28T19:27:11;2.10;75.70
3055;DHT22;1537;52.018;8.542;2023-02-28T19:30:34;2.00;75.50
3055;DHT22;1537;52.018;8.542;2023-02-28T19:33:59;2.00;75.70
3055;DHT22;1537;52.018;8.542;2023-02-28T19:37:24;1.90;75.80
3055;DHT22;1537;52.018;8.542;2023-02-28T19:40:47;1.90;76.10
3055;DHT22;1537;52.018;8.542;2023-02-28T19:44:11;1.90;76.20
3055;DHT22;1537;52.018;8.542;2023-02-28T19:47:34;1.80;76.40
3055;DHT22;1537;52.018;8.542;2023-02-28T19:51:01;1.80;76.60
3055;DHT22;1537;52.018;8.542;2023-02-28T19:54:27;1.70;76.50
3055;DHT22;1537;52.018;8.542;2023-02-28T19:57:50;1.70;76.50
3055;DHT22;1537;52.018;8.542;2023-02-28T20:01:15;1.70;76.60
3055;DHT22;1537;52.018;8.542;2023-02-28T20:04:41;1.60;77.40
3055;DHT22;1537;52.018;8.542;2023-02-28T20:08:05;1.60;77.50
3055;DHT22;1537;52.018;8.542;2023-02-28T20:11:30;1.60;77.50
3055;DHT22;1537;52.018;8.542;2023-02-28T20:14:54;1.50;77.60
3055;DHT22;1537;52.018;8.542;2023-02-28T20:18:18;1.40;77.70
3055;DHT22;1537;52.018;8.542;2023-02-28T20:21:41;1.40;77.90
3055;DHT22;1537;52.018;8.542;2023-02-28T20:25:06;1.40;78.10
3055;DHT22;1537;52.018;8.542;2023-02-28T20:28:33;1.30;78.80
3055;DHT22;1537;52.018;8.542;2023-02-28T20:31:57;1.20;78.90
3055;DHT22;1537;52.018;8.542;2023-02-28T20:35:21;1.20;79.30
3055;DHT22;1537;52.018;8.542;2023-02-28T20:38:45;1.20;79.40
3055;DHT22;1537;52.018;8.542;2023-02-28T20:42:09;1.10;79.60
3055;DHT22;1537;52.018;8.542;2023-02-28T20:45:37;1.10;79.60
3055;DHT22;1537;52.018;8.542;2023-02-28T20:49:01;1.00;79.80
3055;DHT22;1537;52.018;8.542;2023-02-28T20:52:25;1.00;80.20
3055;DHT22;1537;52.018;8.542;2023-02-28T20:55:55;1.00;80.40
3055;DHT22;1537;52.018;8.542;2023-02-28T20:59:19;0.90;80.40
3055;DHT22;1537;52.018;8.542;2023-02-28T21:02:44;0.90;80.60
3055;DHT22;1537;52.018;8.542;2023-02-28T21:06:09;0.90;81.10
3055;DHT22;1537;52.018;8.542;2023-02-28T21:09:33;0.80;81.40
3055;DHT22;1537;52.018;8.542;2023-02-28T21:12:56;0.80;81.60
3055;DHT22;1537;52.018;8.542;2023-02-28T21:16:22;0.80;81.80
3055;DHT22;1537;52.018;8.542;2023-02-28T21:19:48;0.70;82.00
3055;DHT22;1537;52.018;8.542;2023-02-28T21:23:11;0.70;82.10
3055;DHT22;1537;52.018;8.542;2023-02-28T21:26:35;0.70;82.00
3055;DHT22;1537;52.018;8.542;2023-02-28T21:29:59;0.60;82.30
3055;DHT22;1537;52.018;8.542;2023-02-28T21:33:22;0.60;82.40
3055;DHT22;1537;52.018;8.542;2023-02-28T21:36:47;0.60;82.90
3055;DHT22;1537;52.018;8.542;2023-02-28T21:40:12;0.50;83.40
3055;DHT22;1537;52.018;8.542;2023-02-28T21:43:36;0.50;83.60
3055;DHT22;1537;52.018;8.542;2023-02-28T21:46:59;0.50;83.90
3055;DHT22;1537;52.018;8.542;2023-02-28T21:50:24;0.40;84.00
3055;DHT22;1537;52.018;8.542;2023-02-28T21:53:52;0.50;85.00
3055;DHT22;1537;52.018;8.542;2023-02-28T21:57:16;0.40;85.20
3055;DHT22;1537;52.018;8.542;2023-02-28T22:00:40;0.40;85.30
3055;DHT22;1537;52.018;8.542;2023-02-28T22:04:06;0.40;85.50
3055;DHT22;1537;52.018;8.542;2023-02-28T22:07:31;0.40;85.80
3055;DHT22;1537;52.018;8.542;2023-02-28T22:11:02;0.30;85.90
3055;DHT22;1537;52.018;8.542;2023-02-28T22:14:27;0.30;86.30
3055;DHT22;1537;52.018;8.542;2023-02-28T22:17:51;0.30;86.50
3055;DHT22;1537;52.018;8.542;2023-02-28T22:21:17;0.30;86.70
3055;DHT22;1537;52.018;8.542;2023-02-28T22:24:41;0.20;86.90
3055;DHT22;1537;52.018;8.542;2023-02-28T22:28:11;0.20;87.20
3055;DHT22;1537;52.018;8.542;2023-02-28T22:31:36;0.10;87.30
3055;DHT22;1537;52.018;8.542;2023-02-28T22:35:02;0.10;87.50
3055;DHT22;1537;52.018;8.542;2023-02-28T22:38:28;0.10;88.10
3055;DHT22;1537;52.018;8.542;2023-02-28T22:41:56;0.10;88.30
3055;DHT22;1537;52.018;8.542;2023-02-28T22:45:21;0.10;88.60
3055;DHT22;1537;52.018;8.542;2023-02-28T22:48:46;0.10;88.70
3055;DHT22;1537;52.018;8.542;2023-02-28T22:52:12;0.00;88.60
3055;DHT22;1537;52.018;8.542;2023-02-28T22:55:53;-0.10;88.60
3055;DHT22;1537;52.018;8.542;2023-02-28T22:59:18;-0.10;89.00
3055;DHT22;1537;52.018;8.542;2023-02-28T23:02:45;-0.10;89.40